KANB/ANB METAR and TAF weather

Enter ICAO airport designator
Station Type Date Time Source
KANB METAR 2019/04/18 09:53 UTC NOAA

KANB 180953Z AUTO 01004KT 10SM CLR 16/14 A2991 RMK AO2 SLP121 T01610139


Station Type Date Time Source
KANB Decoded METAR 2019/04/18 09:53 UTC NOAA

ANNISTON METRO AIRPORT, AL, United States (KANB) 33-35N 085-51W 183M
Apr 18, 2019 - 05:53 AM EDT / 2019.04.18 0953 UTC
Wind: from the N (010 degrees) at 5 MPH (4 KT):0
Visibility: 10 mile(s):0
Sky conditions: clear
Temperature: 61.0 F (16.1 C)
Dew Point: 57.0 F (13.9 C)
Relative Humidity: 86%
Pressure (altimeter): 29.91 in. Hg (1012 hPa)
ob: KANB 180953Z AUTO 01004KT 10SM CLR 16/14 A2991 RMK AO2 SLP121 T01610139
cycle: 10

Station Type Date Time Source
KANB TAF 2019/04/18 06:28 UTC NOAA

TAF KANB 180525Z 1806/1906 12003KT P6SM BKN250
FM181400 16008KT P6SM SCT020
FM181700 17012G18KT P6SM SCT035
FM190300 18014G20KT P6SM VCSH BKN050

Example: see airport list